sensor_id;sensor_type;location;lat;lon;timestamp;temperature;humidity
21033;DHT22;10675;47.976;7.824;2023-12-20T00:02:13;8.00;99.90
21033;DHT22;10675;47.976;7.824;2023-12-20T00:04:39;8.00;99.90
21033;DHT22;10675;47.976;7.824;2023-12-20T00:07:04;8.00;99.90
21033;DHT22;10675;47.976;7.824;2023-12-20T00:09:30;8.00;99.90
21033;DHT22;10675;47.976;7.824;2023-12-20T00:11:56;8.00;99.90
21033;DHT22;10675;47.976;7.824;2023-12-20T00:14:22;8.00;99.90
21033;DHT22;10675;47.976;7.824;2023-12-20T00:16:47;8.00;99.90
21033;DHT22;10675;47.976;7.824;2023-12-20T00:19:13;8.00;99.90
21033;DHT22;10675;47.976;7.824;2023-12-20T00:21:38;8.00;99.90
21033;DHT22;10675;47.976;7.824;2023-12-20T00:24:04;8.00;99.90
21033;DHT22;10675;47.976;7.824;2023-12-20T00:26:30;8.00;99.90
21033;DHT22;10675;47.976;7.824;2023-12-20T00:28:56;7.90;99.90
21033;DHT22;10675;47.976;7.824;2023-12-20T00:31:21;7.90;99.90
21033;DHT22;10675;47.976;7.824;2023-12-20T00:33:46;7.90;99.90
21033;DHT22;10675;47.976;7.824;2023-12-20T00:36:12;8.00;99.90
21033;DHT22;10675;47.976;7.824;2023-12-20T00:38:38;8.00;99.90
21033;DHT22;10675;47.976;7.824;2023-12-20T00:41:03;8.00;99.90
21033;DHT22;10675;47.976;7.824;2023-12-20T00:43:29;8.00;99.90
21033;DHT22;10675;47.976;7.824;2023-12-20T00:45:54;7.90;99.90
21033;DHT22;10675;47.976;7.824;2023-12-20T00:48:20;7.80;99.90
21033;DHT22;10675;47.976;7.824;2023-12-20T00:50:46;7.70;99.90
21033;DHT22;10675;47.976;7.824;2023-12-20T00:53:12;7.60;99.90
21033;DHT22;10675;47.976;7.824;2023-12-20T00:55:37;7.50;99.90
21033;DHT22;10675;47.976;7.824;2023-12-20T00:58:03;7.50;99.90
21033;DHT22;10675;47.976;7.824;2023-12-20T01:00:28;7.40;99.90
21033;DHT22;10675;47.976;7.824;2023-12-20T01:02:54;7.40;99.90
21033;DHT22;10675;47.976;7.824;2023-12-20T01:05:19;7.40;99.90
21033;DHT22;10675;47.976;7.824;2023-12-20T01:07:48;7.30;99.90
21033;DHT22;10675;47.976;7.824;2023-12-20T01:10:14;7.30;99.90
21033;DHT22;10675;47.976;7.824;2023-12-20T01:12:39;7.30;99.90
21033;DHT22;10675;47.976;7.824;2023-12-20T01:15:05;7.30;99.90
21033;DHT22;10675;47.976;7.824;2023-12-20T01:17:31;7.30;99.90
21033;DHT22;10675;47.976;7.824;2023-12-20T01:19:56;7.20;99.90
21033;DHT22;10675;47.976;7.824;2023-12-20T01:22:22;7.20;99.90
21033;DHT22;10675;47.976;7.824;2023-12-20T01:24:47;7.20;99.90
21033;DHT22;10675;47.976;7.824;2023-12-20T01:27:13;7.10;99.90
21033;DHT22;10675;47.976;7.824;2023-12-20T01:29:38;7.10;99.90
21033;DHT22;10675;47.976;7.824;2023-12-20T01:32:04;7.10;99.90
21033;DHT22;10675;47.976;7.824;2023-12-20T01:34:30;7.10;99.90
21033;DHT22;10675;47.976;7.824;2023-12-20T01:36:55;7.00;99.90
21033;DHT22;10675;47.976;7.824;2023-12-20T01:39:21;7.00;99.90
21033;DHT22;10675;47.976;7.824;2023-12-20T01:41:46;7.00;99.90
21033;DHT22;10675;47.976;7.824;2023-12-20T01:44:12;7.10;99.90
21033;DHT22;10675;47.976;7.824;2023-12-20T01:46:38;7.00;99.90
21033;DHT22;10675;47.976;7.824;2023-12-20T01:49:03;7.00;99.90
21033;DHT22;10675;47.976;7.824;2023-12-20T01:51:29;7.00;99.90
21033;DHT22;10675;47.976;7.824;2023-12-20T01:53:56;7.00;99.90
21033;DHT22;10675;47.976;7.824;2023-12-20T01:56:23;7.00;99.90
21033;DHT22;10675;47.976;7.824;2023-12-20T01:58:49;7.00;99.90
21033;DHT22;10675;47.976;7.824;2023-12-20T02:01:15;7.00;99.90
21033;DHT22;10675;47.976;7.824;2023-12-20T02:03:41;7.00;99.90
21033;DHT22;10675;47.976;7.824;2023-12-20T02:06:08;7.00;99.90
21033;DHT22;10675;47.976;7.824;2023-12-20T02:08:34;7.00;99.90
21033;DHT22;10675;47.976;7.824;2023-12-20T02:11:00;7.00;99.90
21033;DHT22;10675;47.976;7.824;2023-12-20T02:13:25;7.00;99.90
21033;DHT22;10675;47.976;7.824;2023-12-20T02:15:52;7.00;99.90
21033;DHT22;10675;47.976;7.824;2023-12-20T02:18:18;7.00;99.90
21033;DHT22;10675;47.976;7.824;2023-12-20T02:20:43;7.00;99.90
21033;DHT22;10675;47.976;7.824;2023-12-20T02:23:09;7.00;99.90
21033;DHT22;10675;47.976;7.824;2023-12-20T02:25:34;7.00;99.90
21033;DHT22;10675;47.976;7.824;2023-12-20T02:28:01;7.00;99.90
21033;DHT22;10675;47.976;7.824;2023-12-20T02:30:27;7.00;99.90
21033;DHT22;10675;47.976;7.824;2023-12-20T02:32:52;7.00;99.90
21033;DHT22;10675;47.976;7.824;2023-12-20T02:35:18;7.00;99.90
21033;DHT22;10675;47.976;7.824;2023-12-20T02:37:44;7.00;99.90
21033;DHT22;10675;47.976;7.824;2023-12-20T02:40:10;7.00;99.90
21033;DHT22;10675;47.976;7.824;2023-12-20T02:42:36;7.00;99.90
21033;DHT22;10675;47.976;7.824;2023-12-20T02:45:01;6.90;99.90
21033;DHT22;10675;47.976;7.824;2023-12-20T02:47:27;7.00;99.90
21033;DHT22;10675;47.976;7.824;2023-12-20T02:49:52;6.90;99.90
21033;DHT22;10675;47.976;7.824;2023-12-20T02:52:18;7.00;99.90
21033;DHT22;10675;47.976;7.824;2023-12-20T02:54:44;6.90;99.90
21033;DHT22;10675;47.976;7.824;2023-12-20T02:57:09;6.90;99.90
21033;DHT22;10675;47.976;7.824;2023-12-20T02:59:35;6.90;99.90
21033;DHT22;10675;47.976;7.824;2023-12-20T03:02:00;6.90;99.90
21033;DHT22;10675;47.976;7.824;2023-12-20T03:04:26;6.90;99.90
21033;DHT22;10675;47.976;7.824;2023-12-20T03:06:51;6.90;99.90
21033;DHT22;10675;47.976;7.824;2023-12-20T03:09:17;6.90;99.90
21033;DHT22;10675;47.976;7.824;2023-12-20T03:11:42;6.90;99.90
21033;DHT22;10675;47.976;7.824;2023-12-20T03:14:08;6.90;99.90
21033;DHT22;10675;47.976;7.824;2023-12-20T03:16:33;6.80;99.90
21033;DHT22;10675;47.976;7.824;2023-12-20T03:18:59;6.80;99.90
21033;DHT22;10675;47.976;7.824;2023-12-20T03:21:24;6.90;99.90
21033;DHT22;10675;47.976;7.824;2023-12-20T03:23:50;6.80;99.90
21033;DHT22;10675;47.976;7.824;2023-12-20T03:26:16;6.80;99.90
21033;DHT22;10675;47.976;7.824;2023-12-20T03:28:41;6.80;99.90
21033;DHT22;10675;47.976;7.824;2023-12-20T03:31:07;6.80;99.90
21033;DHT22;10675;47.976;7.824;2023-12-20T03:33:34;6.80;99.90
21033;DHT22;10675;47.976;7.824;2023-12-20T03:36:00;6.80;99.90
21033;DHT22;10675;47.976;7.824;2023-12-20T03:38:25;6.80;99.90
21033;DHT22;10675;47.976;7.824;2023-12-20T03:40:51;6.80;99.90
21033;DHT22;10675;47.976;7.824;2023-12-20T03:43:16;7.00;99.90
21033;DHT22;10675;47.976;7.824;2023-12-20T03:45:42;6.80;99.90
21033;DHT22;10675;47.976;7.824;2023-12-20T03:48:08;6.80;99.90
21033;DHT22;10675;47.976;7.824;2023-12-20T03:50:34;6.80;99.90
21033;DHT22;10675;47.976;7.824;2023-12-20T03:53:00;6.80;99.90
21033;DHT22;10675;47.976;7.824;2023-12-20T03:55:25;6.80;99.90
21033;DHT22;10675;47.976;7.824;2023-12-20T03:57:51;6.80;99.90
21033;DHT22;10675;47.976;7.824;2023-12-20T04:00:16;6.80;99.90
21033;DHT22;10675;47.976;7.824;2023-12-20T04:02:42;6.80;99.90
21033;DHT22;10675;47.976;7.824;2023-12-20T04:05:09;6.80;99.90
21033;DHT22;10675;47.976;7.824;2023-12-20T04:07:37;6.80;99.90
21033;DHT22;10675;47.976;7.824;2023-12-20T04:10:04;6.80;99.90
21033;DHT22;10675;47.976;7.824;2023-12-20T04:12:30;6.80;99.90
21033;DHT22;10675;47.976;7.824;2023-12-20T04:14:56;6.80;99.90
21033;DHT22;10675;47.976;7.824;2023-12-20T04:17:22;6.80;99.90
21033;DHT22;10675;47.976;7.824;2023-12-20T04:19:49;6.80;99.90
21033;DHT22;10675;47.976;7.824;2023-12-20T04:22:15;6.70;99.90
21033;DHT22;10675;47.976;7.824;2023-12-20T04:24:40;6.80;99.90
21033;DHT22;10675;47.976;7.824;2023-12-20T04:27:07;6.80;99.90
21033;DHT22;10675;47.976;7.824;2023-12-20T04:29:33;6.80;99.90
21033;DHT22;10675;47.976;7.824;2023-12-20T04:31:59;6.80;99.90
21033;DHT22;10675;47.976;7.824;2023-12-20T04:34:24;6.80;99.90
21033;DHT22;10675;47.976;7.824;2023-12-20T04:36:50;6.80;99.90
21033;DHT22;10675;47.976;7.824;2023-12-20T04:39:15;6.80;99.90
21033;DHT22;10675;47.976;7.824;2023-12-20T04:41:41;6.80;99.90
21033;DHT22;10675;47.976;7.824;2023-12-20T04:44:06;6.80;99.90
21033;DHT22;10675;47.976;7.824;2023-12-20T04:46:32;6.80;99.90
21033;DHT22;10675;47.976;7.824;2023-12-20T04:48:58;6.90;99.90
21033;DHT22;10675;47.976;7.824;2023-12-20T04:51:23;6.90;99.90
21033;DHT22;10675;47.976;7.824;2023-12-20T04:53:49;6.90;99.90
21033;DHT22;10675;47.976;7.824;2023-12-20T04:56:14;6.90;99.90
21033;DHT22;10675;47.976;7.824;2023-12-20T04:58:40;6.90;99.90
21033;DHT22;10675;47.976;7.824;2023-12-20T05:01:06;6.90;99.90
21033;DHT22;10675;47.976;7.824;2023-12-20T05:03:31;6.90;99.90
21033;DHT22;10675;47.976;7.824;2023-12-20T05:05:57;6.90;99.90
21033;DHT22;10675;47.976;7.824;2023-12-20T05:08:23;6.90;99.90
21033;DHT22;10675;47.976;7.824;2023-12-20T05:10:49;6.90;99.90
21033;DHT22;10675;47.976;7.824;2023-12-20T05:13:14;6.90;99.90
21033;DHT22;10675;47.976;7.824;2023-12-20T05:15:40;6.90;99.90
21033;DHT22;10675;47.976;7.824;2023-12-20T05:18:05;6.90;99.90
21033;DHT22;10675;47.976;7.824;2023-12-20T05:20:31;6.90;99.90
21033;DHT22;10675;47.976;7.824;2023-12-20T05:22:56;6.90;99.90
21033;DHT22;10675;47.976;7.824;2023-12-20T05:25:22;6.90;99.90
21033;DHT22;10675;47.976;7.824;2023-12-20T05:27:48;6.90;99.90
21033;DHT22;10675;47.976;7.824;2023-12-20T05:30:13;6.90;99.90
21033;DHT22;10675;47.976;7.824;2023-12-20T05:32:39;6.90;99.90
21033;DHT22;10675;47.976;7.824;2023-12-20T05:35:05;7.00;99.90
21033;DHT22;10675;47.976;7.824;2023-12-20T05:37:30;6.90;99.90
21033;DHT22;10675;47.976;7.824;2023-12-20T05:39:56;6.90;99.90
21033;DHT22;10675;47.976;7.824;2023-12-20T05:42:21;7.00;99.90
21033;DHT22;10675;47.976;7.824;2023-12-20T05:44:47;7.00;99.90
21033;DHT22;10675;47.976;7.824;2023-12-20T05:47:12;7.00;99.90
21033;DHT22;10675;47.976;7.824;2023-12-20T05:49:38;7.00;99.90
21033;DHT22;10675;47.976;7.824;2023-12-20T05:52:03;7.00;99.90
21033;DHT22;10675;47.976;7.824;2023-12-20T05:54:29;7.00;99.90
21033;DHT22;10675;47.976;7.824;2023-12-20T05:56:54;7.00;99.90
21033;DHT22;10675;47.976;7.824;2023-12-20T05:59:20;7.00;99.90
21033;DHT22;10675;47.976;7.824;2023-12-20T06:01:46;7.10;99.90
21033;DHT22;10675;47.976;7.824;2023-12-20T06:04:11;7.10;99.90
21033;DHT22;10675;47.976;7.824;2023-12-20T06:06:43;7.10;99.90
21033;DHT22;10675;47.976;7.824;2023-12-20T06:09:09;7.10;99.90
21033;DHT22;10675;47.976;7.824;2023-12-20T06:11:34;7.10;99.90
21033;DHT22;10675;47.976;7.824;2023-12-20T06:14:00;7.10;99.90
21033;DHT22;10675;47.976;7.824;2023-12-20T06:16:25;7.20;99.90
21033;DHT22;10675;47.976;7.824;2023-12-20T06:18:51;7.20;99.90
21033;DHT22;10675;47.976;7.824;2023-12-20T06:21:17;7.20;99.90
21033;DHT22;10675;47.976;7.824;2023-12-20T06:23:42;7.20;99.90
21033;DHT22;10675;47.976;7.824;2023-12-20T06:26:08;7.20;99.90
21033;DHT22;10675;47.976;7.824;2023-12-20T06:28:33;7.20;99.90
21033;DHT22;10675;47.976;7.824;2023-12-20T06:30:59;7.20;99.90
21033;DHT22;10675;47.976;7.824;2023-12-20T06:33:26;7.30;99.90
21033;DHT22;10675;47.976;7.824;2023-12-20T06:35:51;7.30;99.90
21033;DHT22;10675;47.976;7.824;2023-12-20T06:38:18;7.30;99.90
21033;DHT22;10675;47.976;7.824;2023-12-20T06:40:43;7.20;99.90
21033;DHT22;10675;47.976;7.824;2023-12-20T06:43:09;7.30;99.90
21033;DHT22;10675;47.976;7.824;2023-12-20T06:45:35;7.30;99.90
21033;DHT22;10675;47.976;7.824;2023-12-20T06:48:00;7.20;99.90
21033;DHT22;10675;47.976;7.824;2023-12-20T06:50:26;7.20;99.90
21033;DHT22;10675;47.976;7.824;2023-12-20T06:52:51;7.30;99.90
21033;DHT22;10675;47.976;7.824;2023-12-20T06:55:17;7.20;99.90
21033;DHT22;10675;47.976;7.824;2023-12-20T06:57:43;7.20;99.90
21033;DHT22;10675;47.976;7.824;2023-12-20T07:00:11;7.20;99.90
21033;DHT22;10675;47.976;7.824;2023-12-20T07:02:36;7.20;99.90
21033;DHT22;10675;47.976;7.824;2023-12-20T07:05:02;7.20;99.90
21033;DHT22;10675;47.976;7.824;2023-12-20T07:07:28;7.20;99.90
21033;DHT22;10675;47.976;7.824;2023-12-20T07:09:53;7.20;99.90
21033;DHT22;10675;47.976;7.824;2023-12-20T07:12:19;7.20;99.90
21033;DHT22;10675;47.976;7.824;2023-12-20T07:14:45;7.30;99.90
21033;DHT22;10675;47.976;7.824;2023-12-20T07:17:11;7.30;99.90
21033;DHT22;10675;47.976;7.824;2023-12-20T07:19:39;7.20;99.90
21033;DHT22;10675;47.976;7.824;2023-12-20T07:22:05;7.20;99.90
21033;DHT22;10675;47.976;7.824;2023-12-20T07:24:31;7.20;99.90
21033;DHT22;10675;47.976;7.824;2023-12-20T07:26:57;7.20;99.90
21033;DHT22;10675;47.976;7.824;2023-12-20T07:29:23;7.20;99.90
21033;DHT22;10675;47.976;7.824;2023-12-20T07:31:48;7.20;99.90
21033;DHT22;10675;47.976;7.824;2023-12-20T07:34:14;7.30;99.90
21033;DHT22;10675;47.976;7.824;2023-12-20T07:36:39;7.30;99.90
21033;DHT22;10675;47.976;7.824;2023-12-20T07:39:05;7.30;99.90
21033;DHT22;10675;47.976;7.824;2023-12-20T07:41:30;7.40;99.90
21033;DHT22;10675;47.976;7.824;2023-12-20T07:43:56;7.60;99.90
21033;DHT22;10675;47.976;7.824;2023-12-20T07:46:22;7.50;99.90
21033;DHT22;10675;47.976;7.824;2023-12-20T07:48:50;7.50;99.90
21033;DHT22;10675;47.976;7.824;2023-12-20T07:51:16;7.50;99.90
21033;DHT22;10675;47.976;7.824;2023-12-20T07:53:41;7.40;99.90
21033;DHT22;10675;47.976;7.824;2023-12-20T07:56:14;7.50;99.90
21033;DHT22;10675;47.976;7.824;2023-12-20T07:58:40;7.50;99.90
21033;DHT22;10675;47.976;7.824;2023-12-20T08:01:05;7.50;99.90
21033;DHT22;10675;47.976;7.824;2023-12-20T08:03:31;7.50;99.90
21033;DHT22;10675;47.976;7.824;2023-12-20T08:05:56;7.50;99.90
21033;DHT22;10675;47.976;7.824;2023-12-20T08:08:25;7.60;99.90
21033;DHT22;10675;47.976;7.824;2023-12-20T08:10:50;7.60;99.90
21033;DHT22;10675;47.976;7.824;2023-12-20T08:13:16;7.50;99.90
21033;DHT22;10675;47.976;7.824;2023-12-20T08:15:41;7.50;99.90
21033;DHT22;10675;47.976;7.824;2023-12-20T08:18:07;7.50;99.90
21033;DHT22;10675;47.976;7.824;2023-12-20T08:20:32;7.50;99.90
21033;DHT22;10675;47.976;7.824;2023-12-20T08:22:58;7.40;99.90
21033;DHT22;10675;47.976;7.824;2023-12-20T08:25:23;7.50;99.90
21033;DHT22;10675;47.976;7.824;2023-12-20T08:27:49;7.50;99.90
21033;DHT22;10675;47.976;7.824;2023-12-20T08:30:14;7.40;99.90
21033;DHT22;10675;47.976;7.824;2023-12-20T08:32:42;7.50;99.90
21033;DHT22;10675;47.976;7.824;2023-12-20T08:35:07;7.50;99.90
21033;DHT22;10675;47.976;7.824;2023-12-20T08:37:34;7.50;99.90
21033;DHT22;10675;47.976;7.824;2023-12-20T08:39:59;7.50;99.90
21033;DHT22;10675;47.976;7.824;2023-12-20T08:42:25;7.50;99.90
21033;DHT22;10675;47.976;7.824;2023-12-20T08:44:56;7.50;99.90
21033;DHT22;10675;47.976;7.824;2023-12-20T08:47:22;7.60;99.90
21033;DHT22;10675;47.976;7.824;2023-12-20T08:49:47;7.60;99.90
21033;DHT22;10675;47.976;7.824;2023-12-20T08:52:13;7.60;99.90
21033;DHT22;10675;47.976;7.824;2023-12-20T08:54:38;7.50;99.90
21033;DHT22;10675;47.976;7.824;2023-12-20T08:57:04;7.50;99.90
21033;DHT22;10675;47.976;7.824;2023-12-20T08:59:32;7.50;99.90
21033;DHT22;10675;47.976;7.824;2023-12-20T09:01:57;7.50;99.90
21033;DHT22;10675;47.976;7.824;2023-12-20T09:04:23;7.50;99.90
21033;DHT22;10675;47.976;7.824;2023-12-20T09:06:49;7.50;99.90
21033;DHT22;10675;47.976;7.824;2023-12-20T09:09:14;7.50;99.90
21033;DHT22;10675;47.976;7.824;2023-12-20T09:11:40;7.50;99.90
21033;DHT22;10675;47.976;7.824;2023-12-20T09:14:07;7.50;99.90
21033;DHT22;10675;47.976;7.824;2023-12-20T09:16:32;7.50;99.90
21033;DHT22;10675;47.976;7.824;2023-12-20T09:18:58;7.60;99.90
21033;DHT22;10675;47.976;7.824;2023-12-20T09:21:24;7.50;99.90
21033;DHT22;10675;47.976;7.824;2023-12-20T09:23:49;7.50;99.90
21033;DHT22;10675;47.976;7.824;2023-12-20T09:26:15;7.50;99.90
21033;DHT22;10675;47.976;7.824;2023-12-20T09:28:40;7.50;99.90
21033;DHT22;10675;47.976;7.824;2023-12-20T09:31:06;7.40;99.90
21033;DHT22;10675;47.976;7.824;2023-12-20T09:33:32;7.30;99.90
21033;DHT22;10675;47.976;7.824;2023-12-20T09:35:58;7.40;99.90
21033;DHT22;10675;47.976;7.824;2023-12-20T09:38:23;7.30;99.90
21033;DHT22;10675;47.976;7.824;2023-12-20T09:40:49;7.30;99.90
21033;DHT22;10675;47.976;7.824;2023-12-20T09:43:18;7.30;99.90
21033;DHT22;10675;47.976;7.824;2023-12-20T09:45:46;7.20;99.90
21033;DHT22;10675;47.976;7.824;2023-12-20T09:48:13;7.30;99.90
21033;DHT22;10675;47.976;7.824;2023-12-20T09:50:40;7.30;99.90
21033;DHT22;10675;47.976;7.824;2023-12-20T09:53:08;7.30;99.90
21033;DHT22;10675;47.976;7.824;2023-12-20T09:55:35;7.30;99.90
21033;DHT22;10675;47.976;7.824;2023-12-20T09:58:01;7.40;99.90
21033;DHT22;10675;47.976;7.824;2023-12-20T10:00:27;7.30;99.90
21033;DHT22;10675;47.976;7.824;2023-12-20T10:03:02;7.40;99.90
21033;DHT22;10675;47.976;7.824;2023-12-20T10:05:32;7.40;99.90
21033;DHT22;10675;47.976;7.824;2023-12-20T10:07:58;7.30;99.90
21033;DHT22;10675;47.976;7.824;2023-12-20T10:10:25;7.30;99.90
21033;DHT22;10675;47.976;7.824;2023-12-20T10:13:09;7.30;99.90
21033;DHT22;10675;47.976;7.824;2023-12-20T10:15:36;7.30;99.90
21033;DHT22;10675;47.976;7.824;2023-12-20T10:18:02;7.30;99.90
21033;DHT22;10675;47.976;7.824;2023-12-20T10:20:29;7.20;99.90
21033;DHT22;10675;47.976;7.824;2023-12-20T10:22:55;7.30;99.90
21033;DHT22;10675;47.976;7.824;2023-12-20T10:25:21;7.30;99.90
21033;DHT22;10675;47.976;7.824;2023-12-20T10:27:47;7.40;99.90
21033;DHT22;10675;47.976;7.824;2023-12-20T10:30:13;7.40;99.90
21033;DHT22;10675;47.976;7.824;2023-12-20T10:32:39;7.50;99.90
21033;DHT22;10675;47.976;7.824;2023-12-20T10:35:06;7.40;99.90
21033;DHT22;10675;47.976;7.824;2023-12-20T10:37:35;7.40;99.90
21033;DHT22;10675;47.976;7.824;2023-12-20T10:40:03;7.30;99.90
21033;DHT22;10675;47.976;7.824;2023-12-20T10:42:30;7.40;99.90
21033;DHT22;10675;47.976;7.824;2023-12-20T10:44:58;7.40;99.90
21033;DHT22;10675;47.976;7.824;2023-12-20T10:47:25;7.40;99.90
21033;DHT22;10675;47.976;7.824;2023-12-20T10:49:52;7.30;99.90
21033;DHT22;10675;47.976;7.824;2023-12-20T10:52:18;7.30;99.90
21033;DHT22;10675;47.976;7.824;2023-12-20T10:54:44;7.30;99.90
21033;DHT22;10675;47.976;7.824;2023-12-20T10:57:10;7.40;99.90
21033;DHT22;10675;47.976;7.824;2023-12-20T10:59:37;7.30;99.90
21033;DHT22;10675;47.976;7.824;2023-12-20T11:02:06;7.30;99.90
21033;DHT22;10675;47.976;7.824;2023-12-20T11:15:38;7.40;99.90
21033;DHT22;10675;47.976;7.824;2023-12-20T11:18:04;7.30;99.90
21033;DHT22;10675;47.976;7.824;2023-12-20T11:20:41;7.30;99.90
21033;DHT22;10675;47.976;7.824;2023-12-20T11:23:08;7.30;99.90
21033;DHT22;10675;47.976;7.824;2023-12-20T11:25:47;7.20;99.90
21033;DHT22;10675;47.976;7.824;2023-12-20T11:28:14;7.20;99.90
21033;DHT22;10675;47.976;7.824;2023-12-20T11:30:48;7.30;99.90
21033;DHT22;10675;47.976;7.824;2023-12-20T11:33:17;7.50;99.90
21033;DHT22;10675;47.976;7.824;2023-12-20T11:35:46;7.60;99.90
21033;DHT22;10675;47.976;7.824;2023-12-20T11:38:13;7.70;99.90
21033;DHT22;10675;47.976;7.824;2023-12-20T11:40:41;7.90;99.90
21033;DHT22;10675;47.976;7.824;2023-12-20T11:43:07;7.90;99.90
21033;DHT22;10675;47.976;7.824;2023-12-20T11:45:33;7.80;99.90
21033;DHT22;10675;47.976;7.824;2023-12-20T11:48:03;8.00;99.90
21033;DHT22;10675;47.976;7.824;2023-12-20T11:50:29;8.10;99.90
21033;DHT22;10675;47.976;7.824;2023-12-20T11:52:56;8.20;99.90
21033;DHT22;10675;47.976;7.824;2023-12-20T11:55:22;8.10;99.90
21033;DHT22;10675;47.976;7.824;2023-12-20T11:57:50;8.20;99.90
21033;DHT22;10675;47.976;7.824;2023-12-20T12:00:16;8.10;99.90
21033;DHT22;10675;47.976;7.824;2023-12-20T12:02:41;8.30;99.90
21033;DHT22;10675;47.976;7.824;2023-12-20T12:05:07;8.10;98.60
21033;DHT22;10675;47.976;7.824;2023-12-20T12:07:34;8.20;98.70
21033;DHT22;10675;47.976;7.824;2023-12-20T12:10:00;8.20;97.80
21033;DHT22;10675;47.976;7.824;2023-12-20T12:12:25;8.20;97.40
21033;DHT22;10675;47.976;7.824;2023-12-20T12:14:53;8.20;97.40
21033;DHT22;10675;47.976;7.824;2023-12-20T12:17:18;8.20;97.30
21033;DHT22;10675;47.976;7.824;2023-12-20T12:19:44;8.40;97.50
21033;DHT22;10675;47.976;7.824;2023-12-20T12:22:12;8.70;97.70
21033;DHT22;10675;47.976;7.824;2023-12-20T12:24:46;8.90;97.10
21033;DHT22;10675;47.976;7.824;2023-12-20T12:27:16;8.90;96.00
21033;DHT22;10675;47.976;7.824;2023-12-20T12:30:03;8.80;95.80
21033;DHT22;10675;47.976;7.824;2023-12-20T12:32:29;9.00;95.30
21033;DHT22;10675;47.976;7.824;2023-12-20T12:34:55;9.10;94.50
21033;DHT22;10675;47.976;7.824;2023-12-20T12:37:20;9.00;93.30
21033;DHT22;10675;47.976;7.824;2023-12-20T12:39:49;8.90;93.60
21033;DHT22;10675;47.976;7.824;2023-12-20T12:42:14;9.10;93.50
21033;DHT22;10675;47.976;7.824;2023-12-20T12:44:40;9.20;93.80
21033;DHT22;10675;47.976;7.824;2023-12-20T12:47:05;9.00;93.40
21033;DHT22;10675;47.976;7.824;2023-12-20T12:49:32;8.80;93.10
21033;DHT22;10675;47.976;7.824;2023-12-20T12:51:57;8.60;93.90
21033;DHT22;10675;47.976;7.824;2023-12-20T12:54:24;8.50;92.50
21033;DHT22;10675;47.976;7.824;2023-12-20T12:56:49;8.60;93.60
21033;DHT22;10675;47.976;7.824;2023-12-20T12:59:16;8.50;92.70
21033;DHT22;10675;47.976;7.824;2023-12-20T13:01:41;8.40;92.60
21033;DHT22;10675;47.976;7.824;2023-12-20T13:04:07;8.30;92.70
21033;DHT22;10675;47.976;7.824;2023-12-20T13:06:37;8.30;92.40
21033;DHT22;10675;47.976;7.824;2023-12-20T13:09:03;8.30;92.50
21033;DHT22;10675;47.976;7.824;2023-12-20T13:11:30;8.30;92.70
21033;DHT22;10675;47.976;7.824;2023-12-20T13:13:56;8.20;92.00
21033;DHT22;10675;47.976;7.824;2023-12-20T13:16:23;8.30;92.90
21033;DHT22;10675;47.976;7.824;2023-12-20T13:18:49;8.20;92.60
21033;DHT22;10675;47.976;7.824;2023-12-20T13:21:15;8.20;93.40
21033;DHT22;10675;47.976;7.824;2023-12-20T13:23:40;8.20;92.70
21033;DHT22;10675;47.976;7.824;2023-12-20T13:26:07;8.20;92.90
21033;DHT22;10675;47.976;7.824;2023-12-20T13:28:32;8.10;92.60
21033;DHT22;10675;47.976;7.824;2023-12-20T13:30:58;8.10;93.30
21033;DHT22;10675;47.976;7.824;2023-12-20T13:33:24;8.10;93.80
21033;DHT22;10675;47.976;7.824;2023-12-20T13:35:49;8.00;94.20
21033;DHT22;10675;47.976;7.824;2023-12-20T13:38:15;8.10;94.70
21033;DHT22;10675;47.976;7.824;2023-12-20T13:40:40;8.00;93.60
21033;DHT22;10675;47.976;7.824;2023-12-20T13:43:06;7.90;94.00
21033;DHT22;10675;47.976;7.824;2023-12-20T13:45:31;7.90;94.50
21033;DHT22;10675;47.976;7.824;2023-12-20T13:47:58;7.90;94.90
21033;DHT22;10675;47.976;7.824;2023-12-20T13:50:24;8.00;94.70
21033;DHT22;10675;47.976;7.824;2023-12-20T13:52:49;8.00;95.10
21033;DHT22;10675;47.976;7.824;2023-12-20T13:55:15;8.10;95.50
21033;DHT22;10675;47.976;7.824;2023-12-20T13:57:40;8.10;95.50
21033;DHT22;10675;47.976;7.824;2023-12-20T14:00:07;8.10;95.10
21033;DHT22;10675;47.976;7.824;2023-12-20T14:02:41;8.10;95.00
21033;DHT22;10675;47.976;7.824;2023-12-20T14:05:07;8.10;95.20
21033;DHT22;10675;47.976;7.824;2023-12-20T14:07:33;8.10;94.90
21033;DHT22;10675;47.976;7.824;2023-12-20T14:09:58;8.10;95.30
21033;DHT22;10675;47.976;7.824;2023-12-20T14:12:25;8.10;95.30
21033;DHT22;10675;47.976;7.824;2023-12-20T14:14:50;8.10;96.00
21033;DHT22;10675;47.976;7.824;2023-12-20T14:17:16;8.10;96.30
21033;DHT22;10675;47.976;7.824;2023-12-20T14:19:42;8.00;96.90
21033;DHT22;10675;47.976;7.824;2023-12-20T14:22:07;8.00;97.70
21033;DHT22;10675;47.976;7.824;2023-12-20T14:24:34;7.90;98.00
21033;DHT22;10675;47.976;7.824;2023-12-20T14:27:00;7.80;97.30
21033;DHT22;10675;47.976;7.824;2023-12-20T14:29:25;7.80;97.80
21033;DHT22;10675;47.976;7.824;2023-12-20T14:31:52;7.70;97.70
21033;DHT22;10675;47.976;7.824;2023-12-20T14:34:18;7.60;97.70
21033;DHT22;10675;47.976;7.824;2023-12-20T14:36:43;7.60;97.80
21033;DHT22;10675;47.976;7.824;2023-12-20T14:39:09;7.60;97.80
21033;DHT22;10675;47.976;7.824;2023-12-20T14:41:38;7.50;97.80
21033;DHT22;10675;47.976;7.824;2023-12-20T14:44:05;7.60;98.00
21033;DHT22;10675;47.976;7.824;2023-12-20T14:46:31;7.50;98.00
21033;DHT22;10675;47.976;7.824;2023-12-20T14:48:56;7.50;98.30
21033;DHT22;10675;47.976;7.824;2023-12-20T14:51:22;7.50;98.30
21033;DHT22;10675;47.976;7.824;2023-12-20T14:53:48;7.50;98.30
21033;DHT22;10675;47.976;7.824;2023-12-20T14:56:13;7.40;98.80
21033;DHT22;10675;47.976;7.824;2023-12-20T14:58:39;7.40;99.60
21033;DHT22;10675;47.976;7.824;2023-12-20T15:01:04;7.30;99.70
21033;DHT22;10675;47.976;7.824;2023-12-20T15:03:32;7.30;99.70
21033;DHT22;10675;47.976;7.824;2023-12-20T15:05:58;7.30;99.60
21033;DHT22;10675;47.976;7.824;2023-12-20T15:08:24;7.30;99.80
21033;DHT22;10675;47.976;7.824;2023-12-20T15:10:50;7.30;99.90
21033;DHT22;10675;47.976;7.824;2023-12-20T15:13:16;7.20;99.90
21033;DHT22;10675;47.976;7.824;2023-12-20T15:15:42;7.20;99.90
21033;DHT22;10675;47.976;7.824;2023-12-20T15:18:07;7.10;99.90
21033;DHT22;10675;47.976;7.824;2023-12-20T15:20:33;7.10;99.90
21033;DHT22;10675;47.976;7.824;2023-12-20T15:22:59;7.00;99.90
21033;DHT22;10675;47.976;7.824;2023-12-20T15:25:32;6.90;99.90
21033;DHT22;10675;47.976;7.824;2023-12-20T15:27:58;6.80;99.90
21033;DHT22;10675;47.976;7.824;2023-12-20T15:30:23;6.80;99.90
21033;DHT22;10675;47.976;7.824;2023-12-20T15:32:50;6.70;99.90
21033;DHT22;10675;47.976;7.824;2023-12-20T15:35:16;6.70;99.90
21033;DHT22;10675;47.976;7.824;2023-12-20T15:37:41;6.60;99.90
21033;DHT22;10675;47.976;7.824;2023-12-20T15:40:08;6.60;99.90
21033;DHT22;10675;47.976;7.824;2023-12-20T15:42:40;6.60;99.90
21033;DHT22;10675;47.976;7.824;2023-12-20T15:45:07;6.50;99.90
21033;DHT22;10675;47.976;7.824;2023-12-20T15:47:34;6.40;99.90
21033;DHT22;10675;47.976;7.824;2023-12-20T15:50:01;6.40;99.90